sensor_id;sensor_type;location;lat;lon;timestamp;P1;durP1;ratioP1;P2;durP2;ratioP2
41635;SDS011;27623;51.966;4.602;2023-03-19T00:02:06;10.32;;;5.82;;
41635;SDS011;27623;51.966;4.602;2023-03-19T00:04:32;11.55;;;6.35;;
41635;SDS011;27623;51.966;4.602;2023-03-19T00:07:00;11.07;;;6.65;;
41635;SDS011;27623;51.966;4.602;2023-03-19T00:09:27;8.88;;;6.10;;
41635;SDS011;27623;51.966;4.602;2023-03-19T00:11:53;11.27;;;6.07;;
41635;SDS011;27623;51.966;4.602;2023-03-19T00:14:18;11.88;;;6.47;;
41635;SDS011;27623;51.966;4.602;2023-03-19T00:16:44;9.23;;;6.70;;
41635;SDS011;27623;51.966;4.602;2023-03-19T00:19:10;10.48;;;6.15;;
41635;SDS011;27623;51.966;4.602;2023-03-19T00:21:35;8.38;;;6.18;;
41635;SDS011;27623;51.966;4.602;2023-03-19T00:24:00;10.75;;;7.00;;
41635;SDS011;27623;51.966;4.602;2023-03-19T00:26:30;9.88;;;6.72;;
41635;SDS011;27623;51.966;4.602;2023-03-19T00:28:57;11.77;;;6.88;;
41635;SDS011;27623;51.966;4.602;2023-03-19T00:31:23;13.43;;;7.10;;
41635;SDS011;27623;51.966;4.602;2023-03-19T00:33:49;8.75;;;6.10;;
41635;SDS011;27623;51.966;4.602;2023-03-19T00:36:15;9.98;;;6.45;;
41635;SDS011;27623;51.966;4.602;2023-03-19T00:38:41;11.18;;;6.82;;
41635;SDS011;27623;51.966;4.602;2023-03-19T00:41:07;12.40;;;8.02;;
41635;SDS011;27623;51.966;4.602;2023-03-19T00:43:33;11.02;;;7.32;;
41635;SDS011;27623;51.966;4.602;2023-03-19T00:46:01;8.93;;;6.57;;
41635;SDS011;27623;51.966;4.602;2023-03-19T00:48:30;11.43;;;6.85;;
41635;SDS011;27623;51.966;4.602;2023-03-19T00:50:57;11.90;;;7.35;;
41635;SDS011;27623;51.966;4.602;2023-03-19T00:53:27;10.80;;;6.97;;
41635;SDS011;27623;51.966;4.602;2023-03-19T00:55:52;9.35;;;6.90;;
41635;SDS011;27623;51.966;4.602;2023-03-19T00:58:17;12.00;;;7.25;;
41635;SDS011;27623;51.966;4.602;2023-03-19T01:00:43;11.15;;;6.82;;
41635;SDS011;27623;51.966;4.602;2023-03-19T01:03:09;14.80;;;8.00;;
41635;SDS011;27623;51.966;4.602;2023-03-19T01:05:34;12.35;;;7.78;;
41635;SDS011;27623;51.966;4.602;2023-03-19T01:08:02;11.52;;;6.70;;
41635;SDS011;27623;51.966;4.602;2023-03-19T01:10:28;12.43;;;7.50;;
41635;SDS011;27623;51.966;4.602;2023-03-19T01:12:53;13.30;;;7.28;;
41635;SDS011;27623;51.966;4.602;2023-03-19T01:15:18;12.77;;;7.40;;
41635;SDS011;27623;51.966;4.602;2023-03-19T01:17:44;14.20;;;7.78;;
41635;SDS011;27623;51.966;4.602;2023-03-19T01:20:10;12.32;;;7.30;;
41635;SDS011;27623;51.966;4.602;2023-03-19T01:22:42;10.02;;;7.03;;
41635;SDS011;27623;51.966;4.602;2023-03-19T01:25:09;10.43;;;6.93;;
41635;SDS011;27623;51.966;4.602;2023-03-19T01:27:36;11.40;;;6.80;;
41635;SDS011;27623;51.966;4.602;2023-03-19T01:30:02;12.35;;;6.82;;
41635;SDS011;27623;51.966;4.602;2023-03-19T01:32:28;9.20;;;5.57;;
41635;SDS011;27623;51.966;4.602;2023-03-19T01:34:53;11.75;;;5.95;;
41635;SDS011;27623;51.966;4.602;2023-03-19T01:37:21;8.70;;;5.88;;
41635;SDS011;27623;51.966;4.602;2023-03-19T01:39:48;8.73;;;4.95;;
41635;SDS011;27623;51.966;4.602;2023-03-19T01:42:14;7.05;;;4.25;;
41635;SDS011;27623;51.966;4.602;2023-03-19T01:44:39;6.70;;;4.50;;
41635;SDS011;27623;51.966;4.602;2023-03-19T01:47:21;5.82;;;3.90;;
41635;SDS011;27623;51.966;4.602;2023-03-19T01:50:01;7.00;;;4.25;;
41635;SDS011;27623;51.966;4.602;2023-03-19T01:52:28;7.82;;;4.80;;
41635;SDS011;27623;51.966;4.602;2023-03-19T01:54:58;9.20;;;4.70;;
41635;SDS011;27623;51.966;4.602;2023-03-19T01:57:26;10.10;;;4.60;;
41635;SDS011;27623;51.966;4.602;2023-03-19T01:59:55;5.57;;;4.10;;
41635;SDS011;27623;51.966;4.602;2023-03-19T02:02:30;8.15;;;4.22;;
41635;SDS011;27623;51.966;4.602;2023-03-19T02:05:07;8.05;;;4.60;;
41635;SDS011;27623;51.966;4.602;2023-03-19T02:07:36;7.15;;;4.68;;
41635;SDS011;27623;51.966;4.602;2023-03-19T02:10:05;7.25;;;4.30;;
41635;SDS011;27623;51.966;4.602;2023-03-19T02:12:35;8.15;;;4.38;;
41635;SDS011;27623;51.966;4.602;2023-03-19T02:15:00;9.07;;;5.10;;
41635;SDS011;27623;51.966;4.602;2023-03-19T02:17:26;11.27;;;5.43;;
41635;SDS011;27623;51.966;4.602;2023-03-19T02:22:38;10.48;;;5.45;;
41635;SDS011;27623;51.966;4.602;2023-03-19T02:27:41;14.07;;;6.10;;
41635;SDS011;27623;51.966;4.602;2023-03-19T02:30:17;8.68;;;5.15;;
41635;SDS011;27623;51.966;4.602;2023-03-19T02:32:48;7.85;;;5.03;;
41635;SDS011;27623;51.966;4.602;2023-03-19T02:35:16;9.02;;;5.50;;
41635;SDS011;27623;51.966;4.602;2023-03-19T02:37:42;9.60;;;5.90;;
41635;SDS011;27623;51.966;4.602;2023-03-19T02:40:15;10.32;;;6.78;;
41635;SDS011;27623;51.966;4.602;2023-03-19T02:42:48;10.90;;;6.20;;
41635;SDS011;27623;51.966;4.602;2023-03-19T02:45:16;11.82;;;6.78;;
41635;SDS011;27623;51.966;4.602;2023-03-19T02:47:42;13.20;;;7.80;;
41635;SDS011;27623;51.966;4.602;2023-03-19T02:50:08;11.20;;;7.78;;
41635;SDS011;27623;51.966;4.602;2023-03-19T02:52:34;10.93;;;7.50;;
41635;SDS011;27623;51.966;4.602;2023-03-19T02:55:00;10.48;;;7.70;;
41635;SDS011;27623;51.966;4.602;2023-03-19T02:57:28;14.07;;;8.70;;
41635;SDS011;27623;51.966;4.602;2023-03-19T02:59:56;13.40;;;7.65;;
41635;SDS011;27623;51.966;4.602;2023-03-19T03:02:21;14.02;;;7.28;;
41635;SDS011;27623;51.966;4.602;2023-03-19T03:04:46;12.95;;;8.07;;
41635;SDS011;27623;51.966;4.602;2023-03-19T03:07:14;11.27;;;6.95;;
41635;SDS011;27623;51.966;4.602;2023-03-19T03:09:39;10.05;;;6.68;;
41635;SDS011;27623;51.966;4.602;2023-03-19T03:12:05;14.93;;;8.05;;
41635;SDS011;27623;51.966;4.602;2023-03-19T03:14:31;11.15;;;6.63;;
41635;SDS011;27623;51.966;4.602;2023-03-19T03:16:59;10.40;;;6.45;;
41635;SDS011;27623;51.966;4.602;2023-03-19T03:19:24;11.40;;;6.05;;
41635;SDS011;27623;51.966;4.602;2023-03-19T03:21:50;10.77;;;6.20;;
41635;SDS011;27623;51.966;4.602;2023-03-19T03:24:15;12.20;;;6.75;;
41635;SDS011;27623;51.966;4.602;2023-03-19T03:26:41;10.13;;;6.97;;
41635;SDS011;27623;51.966;4.602;2023-03-19T03:29:09;11.13;;;6.75;;
41635;SDS011;27623;51.966;4.602;2023-03-19T03:31:37;14.43;;;7.03;;
41635;SDS011;27623;51.966;4.602;2023-03-19T03:34:02;13.10;;;7.55;;
41635;SDS011;27623;51.966;4.602;2023-03-19T03:36:28;11.57;;;7.70;;
41635;SDS011;27623;51.966;4.602;2023-03-19T03:38:56;10.90;;;7.72;;
41635;SDS011;27623;51.966;4.602;2023-03-19T03:41:22;10.90;;;7.43;;
41635;SDS011;27623;51.966;4.602;2023-03-19T03:43:48;14.18;;;8.82;;
41635;SDS011;27623;51.966;4.602;2023-03-19T03:46:13;16.52;;;9.27;;
41635;SDS011;27623;51.966;4.602;2023-03-19T03:48:38;16.40;;;10.90;;
41635;SDS011;27623;51.966;4.602;2023-03-19T03:51:04;19.67;;;13.20;;
41635;SDS011;27623;51.966;4.602;2023-03-19T03:53:29;21.38;;;13.07;;
41635;SDS011;27623;51.966;4.602;2023-03-19T03:55:55;22.42;;;13.30;;
41635;SDS011;27623;51.966;4.602;2023-03-19T03:58:21;26.25;;;14.00;;
41635;SDS011;27623;51.966;4.602;2023-03-19T04:00:47;21.52;;;12.68;;
41635;SDS011;27623;51.966;4.602;2023-03-19T04:03:13;23.67;;;13.77;;
41635;SDS011;27623;51.966;4.602;2023-03-19T04:05:38;22.20;;;14.30;;
41635;SDS011;27623;51.966;4.602;2023-03-19T04:08:04;23.77;;;13.13;;
41635;SDS011;27623;51.966;4.602;2023-03-19T04:10:31;22.77;;;12.13;;
41635;SDS011;27623;51.966;4.602;2023-03-19T04:13:02;23.95;;;12.38;;
41635;SDS011;27623;51.966;4.602;2023-03-19T04:15:28;22.20;;;13.48;;
41635;SDS011;27623;51.966;4.602;2023-03-19T04:17:53;21.02;;;12.93;;
41635;SDS011;27623;51.966;4.602;2023-03-19T04:20:19;23.23;;;13.90;;
41635;SDS011;27623;51.966;4.602;2023-03-19T04:22:46;21.38;;;13.48;;
41635;SDS011;27623;51.966;4.602;2023-03-19T04:25:12;26.25;;;14.45;;
41635;SDS011;27623;51.966;4.602;2023-03-19T04:27:37;26.10;;;14.00;;
41635;SDS011;27623;51.966;4.602;2023-03-19T04:30:03;21.48;;;13.55;;
41635;SDS011;27623;51.966;4.602;2023-03-19T04:32:28;23.75;;;14.63;;
41635;SDS011;27623;51.966;4.602;2023-03-19T04:34:54;24.55;;;14.30;;
41635;SDS011;27623;51.966;4.602;2023-03-19T04:37:20;27.80;;;14.13;;
41635;SDS011;27623;51.966;4.602;2023-03-19T04:39:45;28.92;;;15.15;;
41635;SDS011;27623;51.966;4.602;2023-03-19T04:42:11;23.23;;;14.57;;
41635;SDS011;27623;51.966;4.602;2023-03-19T04:44:36;25.60;;;15.23;;
41635;SDS011;27623;51.966;4.602;2023-03-19T04:47:04;25.63;;;15.70;;
41635;SDS011;27623;51.966;4.602;2023-03-19T04:49:30;25.15;;;14.85;;
41635;SDS011;27623;51.966;4.602;2023-03-19T04:51:56;25.27;;;16.02;;
41635;SDS011;27623;51.966;4.602;2023-03-19T04:54:24;25.90;;;15.13;;
41635;SDS011;27623;51.966;4.602;2023-03-19T04:56:50;25.38;;;15.05;;
41635;SDS011;27623;51.966;4.602;2023-03-19T04:59:17;28.23;;;16.02;;
41635;SDS011;27623;51.966;4.602;2023-03-19T05:01:42;25.58;;;15.23;;
41635;SDS011;27623;51.966;4.602;2023-03-19T05:04:07;29.10;;;16.52;;
41635;SDS011;27623;51.966;4.602;2023-03-19T05:06:33;25.95;;;15.80;;
41635;SDS011;27623;51.966;4.602;2023-03-19T05:09:02;25.27;;;15.30;;
41635;SDS011;27623;51.966;4.602;2023-03-19T05:11:28;28.33;;;16.60;;
41635;SDS011;27623;51.966;4.602;2023-03-19T05:13:54;27.88;;;16.08;;
41635;SDS011;27623;51.966;4.602;2023-03-19T05:16:22;27.00;;;16.38;;
41635;SDS011;27623;51.966;4.602;2023-03-19T05:18:47;25.98;;;15.48;;
41635;SDS011;27623;51.966;4.602;2023-03-19T05:21:14;26.15;;;15.95;;
41635;SDS011;27623;51.966;4.602;2023-03-19T05:23:40;27.73;;;15.85;;
41635;SDS011;27623;51.966;4.602;2023-03-19T05:26:06;30.63;;;16.42;;
41635;SDS011;27623;51.966;4.602;2023-03-19T05:28:32;29.42;;;17.10;;
41635;SDS011;27623;51.966;4.602;2023-03-19T05:30:58;24.02;;;15.40;;
41635;SDS011;27623;51.966;4.602;2023-03-19T05:33:23;27.10;;;16.88;;
41635;SDS011;27623;51.966;4.602;2023-03-19T05:35:53;29.17;;;16.58;;
41635;SDS011;27623;51.966;4.602;2023-03-19T05:38:18;25.05;;;15.88;;
41635;SDS011;27623;51.966;4.602;2023-03-19T05:40:44;29.00;;;15.52;;
41635;SDS011;27623;51.966;4.602;2023-03-19T05:43:09;30.85;;;16.67;;
41635;SDS011;27623;51.966;4.602;2023-03-19T05:45:35;31.35;;;16.05;;
41635;SDS011;27623;51.966;4.602;2023-03-19T05:48:02;27.95;;;15.88;;
41635;SDS011;27623;51.966;4.602;2023-03-19T05:50:28;38.30;;;17.02;;
41635;SDS011;27623;51.966;4.602;2023-03-19T05:52:53;34.67;;;16.65;;
41635;SDS011;27623;51.966;4.602;2023-03-19T05:55:19;33.15;;;16.63;;
41635;SDS011;27623;51.966;4.602;2023-03-19T05:57:44;32.83;;;16.05;;
41635;SDS011;27623;51.966;4.602;2023-03-19T06:00:12;36.42;;;18.30;;
41635;SDS011;27623;51.966;4.602;2023-03-19T06:02:40;33.35;;;17.83;;
41635;SDS011;27623;51.966;4.602;2023-03-19T06:05:07;33.35;;;18.38;;
41635;SDS011;27623;51.966;4.602;2023-03-19T06:07:33;34.17;;;18.25;;
41635;SDS011;27623;51.966;4.602;2023-03-19T06:10:04;29.27;;;14.73;;
41635;SDS011;27623;51.966;4.602;2023-03-19T06:12:30;29.30;;;15.30;;
41635;SDS011;27623;51.966;4.602;2023-03-19T06:14:56;35.53;;;17.13;;
41635;SDS011;27623;51.966;4.602;2023-03-19T06:17:23;31.45;;;16.98;;
41635;SDS011;27623;51.966;4.602;2023-03-19T06:19:49;28.55;;;16.02;;
41635;SDS011;27623;51.966;4.602;2023-03-19T06:22:14;31.77;;;16.98;;
41635;SDS011;27623;51.966;4.602;2023-03-19T06:24:40;37.05;;;17.35;;
41635;SDS011;27623;51.966;4.602;2023-03-19T06:27:06;35.63;;;16.55;;
41635;SDS011;27623;51.966;4.602;2023-03-19T06:29:31;40.58;;;16.75;;
41635;SDS011;27623;51.966;4.602;2023-03-19T06:31:57;35.38;;;16.90;;
41635;SDS011;27623;51.966;4.602;2023-03-19T06:34:22;38.63;;;17.92;;
41635;SDS011;27623;51.966;4.602;2023-03-19T06:36:47;44.95;;;19.17;;
41635;SDS011;27623;51.966;4.602;2023-03-19T06:39:17;38.03;;;17.00;;
41635;SDS011;27623;51.966;4.602;2023-03-19T06:41:43;38.25;;;17.63;;
41635;SDS011;27623;51.966;4.602;2023-03-19T06:44:12;44.15;;;19.35;;
41635;SDS011;27623;51.966;4.602;2023-03-19T06:46:39;38.08;;;17.52;;
41635;SDS011;27623;51.966;4.602;2023-03-19T06:49:05;39.50;;;17.05;;
41635;SDS011;27623;51.966;4.602;2023-03-19T06:51:31;41.50;;;17.48;;
41635;SDS011;27623;51.966;4.602;2023-03-19T06:53:56;42.90;;;17.30;;
41635;SDS011;27623;51.966;4.602;2023-03-19T06:56:21;36.15;;;14.73;;
41635;SDS011;27623;51.966;4.602;2023-03-19T06:58:47;36.40;;;14.93;;
41635;SDS011;27623;51.966;4.602;2023-03-19T07:01:12;46.40;;;19.63;;
41635;SDS011;27623;51.966;4.602;2023-03-19T07:03:40;38.42;;;18.35;;
41635;SDS011;27623;51.966;4.602;2023-03-19T07:06:05;40.22;;;18.13;;
41635;SDS011;27623;51.966;4.602;2023-03-19T07:08:31;47.00;;;17.98;;
41635;SDS011;27623;51.966;4.602;2023-03-19T07:11:02;48.28;;;20.70;;
41635;SDS011;27623;51.966;4.602;2023-03-19T07:13:29;48.00;;;20.35;;
41635;SDS011;27623;51.966;4.602;2023-03-19T07:15:54;47.22;;;20.60;;
41635;SDS011;27623;51.966;4.602;2023-03-19T07:18:20;42.78;;;17.27;;
41635;SDS011;27623;51.966;4.602;2023-03-19T07:20:46;46.58;;;19.65;;
41635;SDS011;27623;51.966;4.602;2023-03-19T07:23:12;47.42;;;20.23;;
41635;SDS011;27623;51.966;4.602;2023-03-19T07:25:37;52.40;;;20.77;;
41635;SDS011;27623;51.966;4.602;2023-03-19T07:28:02;57.58;;;21.15;;
41635;SDS011;27623;51.966;4.602;2023-03-19T07:30:28;58.47;;;21.58;;
41635;SDS011;27623;51.966;4.602;2023-03-19T07:32:54;58.65;;;22.67;;
41635;SDS011;27623;51.966;4.602;2023-03-19T07:35:24;55.55;;;20.42;;
41635;SDS011;27623;51.966;4.602;2023-03-19T07:37:49;61.85;;;23.27;;
41635;SDS011;27623;51.966;4.602;2023-03-19T07:40:15;64.70;;;21.92;;
41635;SDS011;27623;51.966;4.602;2023-03-19T07:42:40;56.78;;;21.95;;
41635;SDS011;27623;51.966;4.602;2023-03-19T07:45:06;56.88;;;22.05;;
41635;SDS011;27623;51.966;4.602;2023-03-19T07:47:32;61.00;;;24.00;;
41635;SDS011;27623;51.966;4.602;2023-03-19T07:49:57;64.05;;;23.85;;
41635;SDS011;27623;51.966;4.602;2023-03-19T07:52:27;55.63;;;23.00;;
41635;SDS011;27623;51.966;4.602;2023-03-19T07:54:53;60.85;;;22.30;;
41635;SDS011;27623;51.966;4.602;2023-03-19T07:57:18;56.85;;;23.27;;
41635;SDS011;27623;51.966;4.602;2023-03-19T07:59:44;59.05;;;22.63;;
41635;SDS011;27623;51.966;4.602;2023-03-19T08:02:10;58.83;;;21.15;;
41635;SDS011;27623;51.966;4.602;2023-03-19T08:04:35;59.28;;;21.50;;
41635;SDS011;27623;51.966;4.602;2023-03-19T08:07:03;59.63;;;21.15;;
41635;SDS011;27623;51.966;4.602;2023-03-19T08:09:29;59.95;;;22.17;;
41635;SDS011;27623;51.966;4.602;2023-03-19T08:11:54;59.03;;;20.55;;
41635;SDS011;27623;51.966;4.602;2023-03-19T08:14:20;62.90;;;21.83;;
41635;SDS011;27623;51.966;4.602;2023-03-19T08:16:48;58.25;;;20.27;;
41635;SDS011;27623;51.966;4.602;2023-03-19T08:19:13;57.90;;;21.20;;
41635;SDS011;27623;51.966;4.602;2023-03-19T08:21:40;57.53;;;20.85;;
41635;SDS011;27623;51.966;4.602;2023-03-19T08:24:06;58.92;;;21.77;;
41635;SDS011;27623;51.966;4.602;2023-03-19T08:26:34;57.63;;;19.95;;
41635;SDS011;27623;51.966;4.602;2023-03-19T08:28:59;57.67;;;20.95;;
41635;SDS011;27623;51.966;4.602;2023-03-19T08:31:25;57.55;;;19.25;;
41635;SDS011;27623;51.966;4.602;2023-03-19T08:33:50;59.30;;;18.85;;
41635;SDS011;27623;51.966;4.602;2023-03-19T08:36:16;56.60;;;19.40;;
41635;SDS011;27623;51.966;4.602;2023-03-19T08:38:43;53.17;;;19.10;;
41635;SDS011;27623;51.966;4.602;2023-03-19T08:41:09;48.20;;;16.60;;
41635;SDS011;27623;51.966;4.602;2023-03-19T08:43:35;52.97;;;19.52;;
41635;SDS011;27623;51.966;4.602;2023-03-19T08:46:01;46.70;;;16.30;;
41635;SDS011;27623;51.966;4.602;2023-03-19T08:48:27;51.05;;;17.40;;
41635;SDS011;27623;51.966;4.602;2023-03-19T08:50:57;47.92;;;17.02;;
41635;SDS011;27623;51.966;4.602;2023-03-19T08:53:26;49.97;;;17.40;;
41635;SDS011;27623;51.966;4.602;2023-03-19T08:55:56;56.15;;;18.83;;
41635;SDS011;27623;51.966;4.602;2023-03-19T08:58:23;48.55;;;17.80;;
41635;SDS011;27623;51.966;4.602;2023-03-19T09:00:50;45.45;;;16.27;;
41635;SDS011;27623;51.966;4.602;2023-03-19T09:03:17;44.03;;;15.52;;
41635;SDS011;27623;51.966;4.602;2023-03-19T09:05:43;43.53;;;15.00;;
41635;SDS011;27623;51.966;4.602;2023-03-19T09:08:12;44.58;;;16.38;;
41635;SDS011;27623;51.966;4.602;2023-03-19T09:10:37;43.90;;;15.43;;
41635;SDS011;27623;51.966;4.602;2023-03-19T09:13:06;42.55;;;15.13;;
41635;SDS011;27623;51.966;4.602;2023-03-19T09:15:34;44.38;;;17.05;;
41635;SDS011;27623;51.966;4.602;2023-03-19T09:18:02;47.50;;;16.42;;
41635;SDS011;27623;51.966;4.602;2023-03-19T09:20:28;41.45;;;15.90;;
41635;SDS011;27623;51.966;4.602;2023-03-19T09:22:53;54.03;;;17.40;;
41635;SDS011;27623;51.966;4.602;2023-03-19T09:25:18;48.17;;;16.55;;
41635;SDS011;27623;51.966;4.602;2023-03-19T09:27:44;44.25;;;15.65;;
41635;SDS011;27623;51.966;4.602;2023-03-19T09:30:12;48.10;;;16.58;;
41635;SDS011;27623;51.966;4.602;2023-03-19T09:32:38;45.22;;;16.40;;
41635;SDS011;27623;51.966;4.602;2023-03-19T09:35:03;47.30;;;17.30;;
41635;SDS011;27623;51.966;4.602;2023-03-19T09:37:31;48.22;;;16.35;;
41635;SDS011;27623;51.966;4.602;2023-03-19T09:39:57;51.92;;;18.58;;
41635;SDS011;27623;51.966;4.602;2023-03-19T09:42:33;52.25;;;18.60;;
41635;SDS011;27623;51.966;4.602;2023-03-19T09:45:13;49.38;;;17.92;;
41635;SDS011;27623;51.966;4.602;2023-03-19T09:47:41;57.58;;;20.15;;
41635;SDS011;27623;51.966;4.602;2023-03-19T09:50:18;52.10;;;18.23;;
41635;SDS011;27623;51.966;4.602;2023-03-19T09:57:51;55.28;;;18.73;;
41635;SDS011;27623;51.966;4.602;2023-03-19T10:02:46;50.80;;;18.85;;
41635;SDS011;27623;51.966;4.602;2023-03-19T10:05:40;60.85;;;19.00;;
41635;SDS011;27623;51.966;4.602;2023-03-19T10:16:16;54.60;;;19.27;;
41635;SDS011;27623;51.966;4.602;2023-03-19T10:18:49;48.05;;;18.13;;
41635;SDS011;27623;51.966;4.602;2023-03-19T10:24:21;47.95;;;16.80;;
41635;SDS011;27623;51.966;4.602;2023-03-19T10:26:59;47.67;;;19.10;;
41635;SDS011;27623;51.966;4.602;2023-03-19T10:29:27;45.83;;;19.17;;
41635;SDS011;27623;51.966;4.602;2023-03-19T10:31:58;50.35;;;19.17;;
41635;SDS011;27623;51.966;4.602;2023-03-19T10:37:19;51.65;;;21.05;;
41635;SDS011;27623;51.966;4.602;2023-03-19T10:39:45;53.58;;;20.38;;
41635;SDS011;27623;51.966;4.602;2023-03-19T10:42:20;49.42;;;20.10;;
41635;SDS011;27623;51.966;4.602;2023-03-19T10:44:52;47.13;;;20.70;;
41635;SDS011;27623;51.966;4.602;2023-03-19T10:47:28;54.97;;;23.65;;
41635;SDS011;27623;51.966;4.602;2023-03-19T10:50:02;50.50;;;20.80;;
41635;SDS011;27623;51.966;4.602;2023-03-19T10:52:29;59.95;;;21.38;;
41635;SDS011;27623;51.966;4.602;2023-03-19T10:55:16;58.35;;;20.02;;
41635;SDS011;27623;51.966;4.602;2023-03-19T10:57:48;50.40;;;20.27;;
41635;SDS011;27623;51.966;4.602;2023-03-19T11:02:49;47.17;;;18.92;;
41635;SDS011;27623;51.966;4.602;2023-03-19T11:05:22;47.40;;;20.67;;
41635;SDS011;27623;51.966;4.602;2023-03-19T11:08:06;50.22;;;22.40;;
41635;SDS011;27623;51.966;4.602;2023-03-19T11:10:44;59.28;;;22.23;;
41635;SDS011;27623;51.966;4.602;2023-03-19T11:13:15;57.63;;;22.73;;
41635;SDS011;27623;51.966;4.602;2023-03-19T11:15:43;55.60;;;22.42;;
41635;SDS011;27623;51.966;4.602;2023-03-19T11:21:07;55.65;;;21.73;;
41635;SDS011;27623;51.966;4.602;2023-03-19T11:23:39;52.97;;;23.20;;
41635;SDS011;27623;51.966;4.602;2023-03-19T11:26:06;54.28;;;21.92;;
41635;SDS011;27623;51.966;4.602;2023-03-19T11:28:33;58.70;;;22.30;;
41635;SDS011;27623;51.966;4.602;2023-03-19T11:31:22;47.20;;;21.63;;
41635;SDS011;27623;51.966;4.602;2023-03-19T11:34:19;52.10;;;22.20;;
41635;SDS011;27623;51.966;4.602;2023-03-19T11:40:12;58.70;;;23.73;;
41635;SDS011;27623;51.966;4.602;2023-03-19T12:06:55;46.30;;;17.67;;
41635;SDS011;27623;51.966;4.602;2023-03-19T12:09:28;42.53;;;20.13;;
41635;SDS011;27623;51.966;4.602;2023-03-19T12:19:54;42.92;;;19.25;;
41635;SDS011;27623;51.966;4.602;2023-03-19T12:28:02;40.70;;;18.65;;
41635;SDS011;27623;51.966;4.602;2023-03-19T12:30:58;39.55;;;16.45;;
41635;SDS011;27623;51.966;4.602;2023-03-19T12:33:48;36.05;;;14.73;;
41635;SDS011;27623;51.966;4.602;2023-03-19T12:36:27;34.45;;;14.32;;
41635;SDS011;27623;51.966;4.602;2023-03-19T12:39:03;35.40;;;15.15;;
41635;SDS011;27623;51.966;4.602;2023-03-19T12:41:35;33.28;;;15.63;;
41635;SDS011;27623;51.966;4.602;2023-03-19T12:46:54;33.60;;;14.50;;
41635;SDS011;27623;51.966;4.602;2023-03-19T12:49:30;28.80;;;13.88;;
41635;SDS011;27623;51.966;4.602;2023-03-19T12:52:07;31.63;;;12.85;;
41635;SDS011;27623;51.966;4.602;2023-03-19T12:54:38;34.80;;;12.52;;
41635;SDS011;27623;51.966;4.602;2023-03-19T12:57:11;24.95;;;12.60;;
41635;SDS011;27623;51.966;4.602;2023-03-19T13:02:19;35.50;;;15.05;;
41635;SDS011;27623;51.966;4.602;2023-03-19T13:04:57;27.33;;;12.18;;
41635;SDS011;27623;51.966;4.602;2023-03-19T13:10:34;28.63;;;10.30;;
41635;SDS011;27623;51.966;4.602;2023-03-19T13:13:12;18.65;;;9.55;;
41635;SDS011;27623;51.966;4.602;2023-03-19T13:15:48;13.20;;;7.68;;
41635;SDS011;27623;51.966;4.602;2023-03-19T13:23:47;19.80;;;8.98;;
41635;SDS011;27623;51.966;4.602;2023-03-19T13:26:15;18.80;;;8.98;;
41635;SDS011;27623;51.966;4.602;2023-03-19T13:29:50;17.02;;;8.73;;
41635;SDS011;27623;51.966;4.602;2023-03-19T13:31:46;15.13;;;7.88;;
41635;SDS011;27623;51.966;4.602;2023-03-19T13:36:40;16.70;;;7.90;;
41635;SDS011;27623;51.966;4.602;2023-03-19T13:39:25;14.95;;;7.60;;
41635;SDS011;27623;51.966;4.602;2023-03-19T13:41:57;14.73;;;6.65;;
41635;SDS011;27623;51.966;4.602;2023-03-19T13:44:38;12.82;;;6.45;;
41635;SDS011;27623;51.966;4.602;2023-03-19T13:52:48;14.73;;;6.75;;
41635;SDS011;27623;51.966;4.602;2023-03-19T13:57:54;12.65;;;6.85;;
41635;SDS011;27623;51.966;4.602;2023-03-19T14:03:51;16.25;;;7.07;;
41635;SDS011;27623;51.966;4.602;2023-03-19T14:06:00;17.95;;;7.55;;
41635;SDS011;27623;51.966;4.602;2023-03-19T14:08:32;15.77;;;7.75;;
41635;SDS011;27623;51.966;4.602;2023-03-19T14:11:08;17.00;;;8.55;;
41635;SDS011;27623;51.966;4.602;2023-03-19T14:13:41;16.15;;;7.78;;
41635;SDS011;27623;51.966;4.602;2023-03-19T14:18:41;21.08;;;10.18;;
41635;SDS011;27623;51.966;4.602;2023-03-19T14:21:15;15.15;;;9.23;;
41635;SDS011;27623;51.966;4.602;2023-03-19T14:23:55;16.67;;;9.90;;
41635;SDS011;27623;51.966;4.602;2023-03-19T14:29:10;21.75;;;10.88;;
41635;SDS011;27623;51.966;4.602;2023-03-19T14:31:43;20.67;;;10.38;;
41635;SDS011;27623;51.966;4.602;2023-03-19T14:36:52;30.08;;;14.68;;
41635;SDS011;27623;51.966;4.602;2023-03-19T14:39:23;24.90;;;11.60;;
41635;SDS011;27623;51.966;4.602;2023-03-19T14:41:57;20.88;;;9.73;;
41635;SDS011;27623;51.966;4.602;2023-03-19T14:47:18;25.23;;;12.33;;
41635;SDS011;27623;51.966;4.602;2023-03-19T14:49:52;27.23;;;12.32;;
41635;SDS011;27623;51.966;4.602;2023-03-19T14:52:20;27.02;;;12.85;;
41635;SDS011;27623;51.966;4.602;2023-03-19T14:55:08;23.20;;;12.57;;
41635;SDS011;27623;51.966;4.602;2023-03-19T14:57:39;23.20;;;9.65;;
41635;SDS011;27623;51.966;4.602;2023-03-19T15:00:17;24.65;;;10.95;;
41635;SDS011;27623;51.966;4.602;2023-03-19T15:02:46;23.48;;;10.55;;
41635;SDS011;27623;51.966;4.602;2023-03-19T15:05:28;24.13;;;12.23;;
41635;SDS011;27623;51.966;4.602;2023-03-19T15:07:58;17.67;;;7.93;;
41635;SDS011;27623;51.966;4.602;2023-03-19T15:10:27;15.70;;;8.60;;
41635;SDS011;27623;51.966;4.602;2023-03-19T15:13:05;15.65;;;7.53;;
41635;SDS011;27623;51.966;4.602;2023-03-19T15:15:38;15.18;;;7.43;;
41635;SDS011;27623;51.966;4.602;2023-03-19T15:18:18;15.80;;;8.98;;
41635;SDS011;27623;51.966;4.602;2023-03-19T15:20:46;19.05;;;10.07;;
41635;SDS011;27623;51.966;4.602;2023-03-19T15:23:18;18.65;;;8.20;;
41635;SDS011;27623;51.966;4.602;2023-03-19T15:25:50;15.23;;;7.38;;
41635;SDS011;27623;51.966;4.602;2023-03-19T15:28:21;17.10;;;8.52;;
41635;SDS011;27623;51.966;4.602;2023-03-19T15:30:59;16.42;;;7.20;;
41635;SDS011;27623;51.966;4.602;2023-03-19T15:33:31;10.77;;;6.07;;
41635;SDS011;27623;51.966;4.602;2023-03-19T15:36:17;13.02;;;7.40;;
41635;SDS011;27623;51.966;4.602;2023-03-19T15:38:56;14.65;;;7.40;;
41635;SDS011;27623;51.966;4.602;2023-03-19T15:41:27;13.55;;;7.55;;
41635;SDS011;27623;51.966;4.602;2023-03-19T15:43:55;10.73;;;6.70;;
41635;SDS011;27623;51.966;4.602;2023-03-19T15:46:22;14.15;;;7.38;;
41635;SDS011;27623;51.966;4.602;2023-03-19T15:48:56;13.18;;;7.50;;
41635;SDS011;27623;51.966;4.602;2023-03-19T15:51:29;13.30;;;6.43;;
41635;SDS011;27623;51.966;4.602;2023-03-19T15:53:56;14.35;;;6.45;;
41635;SDS011;27623;51.966;4.602;2023-03-19T15:56:23;13.98;;;7.05;;
41635;SDS011;27623;51.966;4.602;2023-03-19T15:58:51;15.65;;;7.32;;
41635;SDS011;27623;51.966;4.602;2023-03-19T16:01:20;16.08;;;7.47;;
41635;SDS011;27623;51.966;4.602;2023-03-19T16:03:49;13.85;;;6.65;;
41635;SDS011;27623;51.966;4.602;2023-03-19T16:06:29;12.82;;;7.28;;
41635;SDS011;27623;51.966;4.602;2023-03-19T16:11:50;13.98;;;7.38;;
41635;SDS011;27623;51.966;4.602;2023-03-19T16:14:26;14.30;;;7.55;;
41635;SDS011;27623;51.966;4.602;2023-03-19T16:17:09;13.48;;;7.53;;
41635;SDS011;27623;51.966;4.602;2023-03-19T16:19:54;15.07;;;7.38;;
41635;SDS011;27623;51.966;4.602;2023-03-19T16:22:27;15.25;;;7.90;;
41635;SDS011;27623;51.966;4.602;2023-03-19T16:24:54;17.52;;;9.52;;
41635;SDS011;27623;51.966;4.602;2023-03-19T16:27:34;20.70;;;11.73;;
41635;SDS011;27623;51.966;4.602;2023-03-19T16:30:01;30.27;;;15.52;;
41635;SDS011;27623;51.966;4.602;2023-03-19T16:32:36;26.35;;;12.50;;
41635;SDS011;27623;51.966;4.602;2023-03-19T16:42:41;32.25;;;13.07;;